createdAt,value
2023-01-10T00:00:17.246Z,91.21
2023-01-10T00:01:18.848Z,90.99
2023-01-10T00:02:21.571Z,90.38
2023-01-10T00:03:24.098Z,91.00
2023-01-10T00:04:26.599Z,92.51
2023-01-10T00:05:29.186Z,91.93
2023-01-10T00:06:32.169Z,91.21
2023-01-10T00:07:34.622Z,90.80
2023-01-10T00:08:36.157Z,91.44
2023-01-10T00:09:38.635Z,92.00
2023-01-10T00:10:40.161Z,91.67
2023-01-10T00:12:00.292Z,91.97
2023-01-10T00:13:20.691Z,90.75
2023-01-10T00:14:23.203Z,92.23
2023-01-10T00:15:24.751Z,91.21
2023-01-10T00:16:27.222Z,90.88
2023-01-10T00:17:28.732Z,92.59
2023-01-10T00:18:31.218Z,95.65
2023-01-10T00:19:32.789Z,96.93
2023-01-10T00:20:35.340Z,96.04
2023-01-10T00:21:39.554Z,94.74
2023-01-10T00:22:42.037Z,94.11
2023-01-10T00:23:44.110Z,95.29
2023-01-10T00:24:46.563Z,94.67
2023-01-10T00:25:48.090Z,95.11
2023-01-10T00:26:52.137Z,94.72
2023-01-10T00:27:57.914Z,94.79
2023-01-10T00:29:00.404Z,96.43
2023-01-10T00:30:13.625Z,94.94
2023-01-10T00:31:16.755Z,95.63
2023-01-10T00:32:19.864Z,96.24
2023-01-10T00:33:21.458Z,96.01
2023-01-10T00:34:25.242Z,95.72
2023-01-10T00:35:26.735Z,95.79
2023-01-10T00:36:29.188Z,97.26
2023-01-10T00:37:32.152Z,98.04
2023-01-10T00:38:36.952Z,98.03
2023-01-10T00:39:38.592Z,100.00
2023-01-10T00:40:41.356Z,100.00
2023-01-10T00:42:01.836Z,99.44
2023-01-10T00:43:21.806Z,98.07
2023-01-10T00:44:23.382Z,98.77
2023-01-10T00:45:27.051Z,99.05
2023-01-10T00:46:28.811Z,99.47
2023-01-10T00:47:31.221Z,99.36
2023-01-10T00:48:32.804Z,100.00
2023-01-10T00:49:35.280Z,100.00
2023-01-10T00:50:36.846Z,100.00
2023-01-10T00:51:39.295Z,100.00
2023-01-10T00:52:42.139Z,100.00
2023-01-10T00:53:44.625Z,98.81
2023-01-10T00:54:46.158Z,97.71
2023-01-10T00:55:48.797Z,97.07
2023-01-10T00:56:50.295Z,96.05
2023-01-10T00:57:53.137Z,95.44
2023-01-10T00:58:54.597Z,94.75
2023-01-10T00:59:57.087Z,96.16
2023-01-10T01:00:58.626Z,96.38
2023-01-10T01:02:01.254Z,95.86
2023-01-10T01:03:02.864Z,95.28
2023-01-10T01:04:05.553Z,94.53
2023-01-10T01:05:07.798Z,94.32
2023-01-10T01:06:10.265Z,94.43
2023-01-10T01:07:11.785Z,93.87
2023-01-10T01:08:17.040Z,93.01
2023-01-10T01:09:18.573Z,93.83
2023-01-10T01:10:30.108Z,93.91
2023-01-10T01:11:31.610Z,93.35
2023-01-10T01:12:34.046Z,93.07
2023-01-10T01:13:36.285Z,92.05
2023-01-10T01:14:38.764Z,91.34
2023-01-10T01:15:40.597Z,91.95
2023-01-10T01:16:43.091Z,91.27
2023-01-10T01:17:44.569Z,91.35
2023-01-10T01:18:47.071Z,91.50
2023-01-10T01:19:48.583Z,91.67
2023-01-10T01:20:55.059Z,92.69
2023-01-10T01:21:56.670Z,93.00
2023-01-10T01:23:00.758Z,92.68
2023-01-10T01:24:03.863Z,93.12
2023-01-10T01:25:07.059Z,93.50
2023-01-10T01:26:08.627Z,93.64
2023-01-10T01:27:11.078Z,92.76
2023-01-10T01:28:12.934Z,92.82
2023-01-10T01:29:16.756Z,94.09
2023-01-10T01:30:19.459Z,94.66
2023-01-10T01:31:22.738Z,95.31
2023-01-10T01:32:24.673Z,94.77
2023-01-10T01:33:27.385Z,94.76
2023-01-10T01:34:28.967Z,93.95
2023-01-10T01:35:33.329Z,93.21
2023-01-10T01:36:34.990Z,95.11
2023-01-10T01:37:37.449Z,95.15
2023-01-10T01:38:40.482Z,94.80
2023-01-10T01:39:44.462Z,95.16
2023-01-10T01:40:45.983Z,97.13
2023-01-10T01:42:00.458Z,96.74
2023-01-10T01:43:02.260Z,96.88
2023-01-10T01:44:06.598Z,98.11
2023-01-10T01:45:39.058Z,97.71
2023-01-10T01:46:42.223Z,98.95
2023-01-10T01:47:49.244Z,100.00
2023-01-10T01:48:51.726Z,100.00
2023-01-10T01:49:54.279Z,100.00
2023-01-10T01:51:05.396Z,100.00
2023-01-10T01:52:11.011Z,100.00
2023-01-10T01:53:18.819Z,100.00
2023-01-10T01:54:21.733Z,100.00
2023-01-10T01:55:26.474Z,100.00
2023-01-10T01:56:34.119Z,100.00
2023-01-10T01:57:36.539Z,100.00
2023-01-10T01:58:45.051Z,100.00
2023-01-10T01:59:49.818Z,100.00
2023-01-10T02:00:52.434Z,100.00
2023-01-10T02:01:58.478Z,100.00
2023-01-10T02:03:03.515Z,100.00
2023-01-10T02:04:12.018Z,100.00
2023-01-10T02:05:16.238Z,100.00
2023-01-10T02:06:20.261Z,100.00
2023-01-10T02:07:24.150Z,100.00
2023-01-10T02:08:26.640Z,98.94
2023-01-10T02:09:33.230Z,98.37
2023-01-10T02:10:43.943Z,97.36
2023-01-10T02:11:47.088Z,96.18
2023-01-10T02:12:50.850Z,95.99
2023-01-10T02:13:54.303Z,96.22
2023-01-10T02:14:56.126Z,95.79
2023-01-10T02:15:58.672Z,97.52
2023-01-10T02:17:00.205Z,97.23
2023-01-10T02:18:04.362Z,97.55
2023-01-10T02:19:14.368Z,97.71
2023-01-10T02:20:18.911Z,97.03
2023-01-10T02:22:06.282Z,96.75
2023-01-10T02:23:41.179Z,95.76
2023-01-10T02:25:19.848Z,96.14
2023-01-10T02:26:42.788Z,95.33
2023-01-10T02:28:04.906Z,95.35
2023-01-10T02:29:48.773Z,96.33
2023-01-10T02:31:17.729Z,95.80
2023-01-10T02:32:42.154Z,96.14
2023-01-10T02:33:58.744Z,95.60
2023-01-10T02:35:10.356Z,96.23
2023-01-10T02:36:26.665Z,95.60
2023-01-10T02:37:40.838Z,95.58
2023-01-10T02:38:55.806Z,95.37
2023-01-10T02:40:03.281Z,94.32
2023-01-10T02:41:15.600Z,95.56
2023-01-10T02:42:24.106Z,95.65
2023-01-10T02:43:31.889Z,95.75
2023-01-10T02:44:39.720Z,94.61
2023-01-10T02:45:48.840Z,95.47
2023-01-10T02:46:52.496Z,95.47
2023-01-10T02:47:56.236Z,95.64
2023-01-10T02:48:58.724Z,95.35
2023-01-10T02:50:36.938Z,95.54
2023-01-10T02:51:38.480Z,95.70
2023-01-10T02:52:40.940Z,95.55
2023-01-10T02:53:46.042Z,94.68
2023-01-10T02:54:50.325Z,94.05
2023-01-10T02:56:12.845Z,94.68
2023-01-10T02:57:36.068Z,95.16
2023-01-10T02:58:54.076Z,95.38
2023-01-10T03:00:19.095Z,95.91
2023-01-10T03:01:31.378Z,95.65
2023-01-10T03:02:45.985Z,95.63
2023-01-10T03:03:59.994Z,95.34
2023-01-10T03:05:11.125Z,95.76
2023-01-10T03:06:24.395Z,96.04
2023-01-10T03:07:33.887Z,96.14
2023-01-10T03:08:40.612Z,96.45
2023-01-10T03:09:52.412Z,96.44
2023-01-10T03:10:59.644Z,95.79
2023-01-10T03:12:09.627Z,95.40
2023-01-10T03:13:18.024Z,95.27
2023-01-10T03:14:24.518Z,94.68
2023-01-10T03:15:30.742Z,94.54
2023-01-10T03:16:36.882Z,94.34
2023-01-10T03:17:41.659Z,95.31
2023-01-10T03:18:51.866Z,96.79
2023-01-10T03:19:59.429Z,97.09
2023-01-10T03:21:05.005Z,96.75
2023-01-10T03:22:10.876Z,98.29
2023-01-10T03:23:15.231Z,97.98
2023-01-10T03:24:21.456Z,98.78
2023-01-10T03:25:29.239Z,99.08
2023-01-10T03:26:37.528Z,99.38
2023-01-10T03:27:49.266Z,98.06
2023-01-10T03:28:56.062Z,98.97
2023-01-10T03:30:04.105Z,99.45
2023-01-10T03:31:11.223Z,99.07
2023-01-10T03:32:18.239Z,98.07
2023-01-10T03:33:24.770Z,97.30
2023-01-10T03:34:28.926Z,97.23
2023-01-10T03:35:43.017Z,96.49
2023-01-10T03:36:53.423Z,96.09
2023-01-10T03:38:01.399Z,94.89
2023-01-10T03:39:11.133Z,95.58
2023-01-10T03:40:19.289Z,96.23
2023-01-10T03:41:30.809Z,95.39
2023-01-10T03:42:56.528Z,94.79
2023-01-10T03:44:25.648Z,95.07
2023-01-10T03:45:35.626Z,94.62
2023-01-10T03:46:41.889Z,94.03
2023-01-10T03:47:50.502Z,93.02
2023-01-10T03:48:53.946Z,92.71
2023-01-10T03:50:03.410Z,92.63
2023-01-10T03:51:07.522Z,93.49
2023-01-10T03:52:13.181Z,95.31
2023-01-10T03:53:15.744Z,94.57
2023-01-10T03:54:18.478Z,93.94
2023-01-10T03:55:23.149Z,93.08
2023-01-10T03:56:25.601Z,93.49
2023-01-10T03:57:27.132Z,94.14
2023-01-10T03:58:30.231Z,93.32
2023-01-10T03:59:32.196Z,93.17
2023-01-10T04:00:34.686Z,93.21
2023-01-10T04:01:36.280Z,93.38
2023-01-10T04:02:39.055Z,93.03
2023-01-10T04:03:40.633Z,94.47
2023-01-10T04:04:43.229Z,94.16
2023-01-10T04:05:46.087Z,94.32
2023-01-10T04:06:48.601Z,94.42
2023-01-10T04:07:50.107Z,94.62
2023-01-10T04:08:52.596Z,94.65
2023-01-10T04:09:54.265Z,94.32
2023-01-10T04:10:56.764Z,93.32
2023-01-10T04:11:58.260Z,93.07
2023-01-10T04:13:01.264Z,92.08
2023-01-10T04:14:02.797Z,92.09
2023-01-10T04:15:06.131Z,91.81
2023-01-10T04:16:08.435Z,91.35
2023-01-10T04:17:10.922Z,90.83
2023-01-10T04:18:13.063Z,90.20
2023-01-10T04:19:15.563Z,90.04
2023-01-10T04:20:17.284Z,90.90
2023-01-10T04:21:21.238Z,92.84
2023-01-10T04:22:22.825Z,92.43
2023-01-10T04:23:25.249Z,92.13
2023-01-10T04:24:26.728Z,91.61
2023-01-10T04:25:29.152Z,91.13
2023-01-10T04:26:30.694Z,91.73
2023-01-10T04:27:33.147Z,91.50
2023-01-10T04:28:34.699Z,91.65
2023-01-10T04:29:37.181Z,91.85
2023-01-10T04:30:38.709Z,91.90
2023-01-10T04:31:41.697Z,91.30
2023-01-10T04:32:43.249Z,90.58
2023-01-10T04:33:45.792Z,90.03
2023-01-10T04:34:47.274Z,90.54
2023-01-10T04:35:49.913Z,91.06
2023-01-10T04:36:53.682Z,91.40
2023-01-10T04:37:55.228Z,91.22
2023-01-10T04:38:57.738Z,91.59
2023-01-10T04:39:59.299Z,91.83
2023-01-10T04:41:01.748Z,91.86
2023-01-10T04:42:03.607Z,91.91
2023-01-10T04:43:06.033Z,92.03
2023-01-10T04:44:07.960Z,92.34
2023-01-10T04:45:13.534Z,92.30
2023-01-10T04:46:15.216Z,91.87
2023-01-10T04:47:17.807Z,92.07
2023-01-10T04:48:19.575Z,92.17
2023-01-10T04:49:22.179Z,91.64
2023-01-10T04:50:23.883Z,91.29
2023-01-10T04:51:26.624Z,90.27
2023-01-10T04:52:29.412Z,90.73
2023-01-10T04:53:31.858Z,91.17
2023-01-10T04:54:33.377Z,91.93
2023-01-10T04:55:35.814Z,92.32
2023-01-10T04:56:37.401Z,92.31
2023-01-10T04:57:39.899Z,93.04
2023-01-10T04:58:41.397Z,92.96
2023-01-10T04:59:43.842Z,92.62
2023-01-10T05:00:45.382Z,91.33
2023-01-10T05:01:47.972Z,91.23
2023-01-10T05:02:49.677Z,90.18
2023-01-10T05:03:53.224Z,89.54
2023-01-10T05:04:55.680Z,89.30
2023-01-10T05:05:58.301Z,88.99
2023-01-10T05:07:00.716Z,88.59
2023-01-10T05:08:03.919Z,89.63
2023-01-10T05:09:06.556Z,89.40
2023-01-10T05:10:09.554Z,90.27
2023-01-10T05:11:12.460Z,90.46
2023-01-10T05:12:13.926Z,91.30
2023-01-10T05:13:16.326Z,90.89
2023-01-10T05:14:18.925Z,90.49
2023-01-10T05:15:21.151Z,90.01
2023-01-10T05:16:25.307Z,89.91
2023-01-10T05:17:27.213Z,89.79
2023-01-10T05:18:30.746Z,90.15
2023-01-10T05:19:32.348Z,90.87
2023-01-10T05:20:34.934Z,91.42
2023-01-10T05:21:36.405Z,91.41
2023-01-10T05:22:38.826Z,90.36
2023-01-10T05:23:41.740Z,90.49
2023-01-10T05:24:44.161Z,89.94
2023-01-10T05:25:45.820Z,89.57
2023-01-10T05:26:48.248Z,88.98
2023-01-10T05:27:49.695Z,88.59
2023-01-10T05:28:52.566Z,88.38
2023-01-10T05:29:54.132Z,88.32
2023-01-10T05:30:56.567Z,88.21
2023-01-10T05:31:58.130Z,88.54
2023-01-10T05:33:00.592Z,89.67
2023-01-10T05:34:02.059Z,90.47
2023-01-10T05:35:04.994Z,90.26
2023-01-10T05:36:07.798Z,90.84
2023-01-10T05:37:10.240Z,91.04
2023-01-10T05:38:11.710Z,91.90
2023-01-10T05:39:15.559Z,91.45
2023-01-10T05:40:17.389Z,91.25
2023-01-10T05:41:19.926Z,90.66
2023-01-10T05:42:21.405Z,89.91
2023-01-10T05:43:23.878Z,90.33
2023-01-10T05:44:25.324Z,90.31
2023-01-10T05:45:27.725Z,90.05
2023-01-10T05:46:29.239Z,90.20
2023-01-10T05:47:31.699Z,89.52
2023-01-10T05:48:33.220Z,89.80
2023-01-10T05:49:35.627Z,89.90
2023-01-10T05:50:37.145Z,90.45
2023-01-10T05:51:39.572Z,90.54
2023-01-10T05:52:41.138Z,89.77
2023-01-10T05:53:43.591Z,89.29
2023-01-10T05:54:46.401Z,89.52
2023-01-10T05:55:54.087Z,90.20
2023-01-10T05:56:56.556Z,90.94
2023-01-10T05:57:58.061Z,91.52
2023-01-10T05:59:17.033Z,91.86
2023-01-10T06:00:25.103Z,91.85
2023-01-10T06:01:26.731Z,91.73
2023-01-10T06:02:29.292Z,91.81
2023-01-10T06:03:33.369Z,92.15
2023-01-10T06:04:38.461Z,92.50
2023-01-10T06:05:39.949Z,93.01
2023-01-10T06:06:42.412Z,93.00
2023-01-10T06:07:45.248Z,92.43
2023-01-10T06:08:47.672Z,91.85
2023-01-10T06:09:51.356Z,92.28
2023-01-10T06:10:53.986Z,92.20
2023-01-10T06:11:55.834Z,92.60
2023-01-10T06:12:58.244Z,92.07
2023-01-10T06:13:59.764Z,92.28
2023-01-10T06:15:03.280Z,91.60
2023-01-10T06:16:05.566Z,92.02
2023-01-10T06:17:10.176Z,92.29
2023-01-10T06:18:14.721Z,92.51
2023-01-10T06:19:17.181Z,92.18
2023-01-10T06:20:19.850Z,91.89
2023-01-10T06:21:21.465Z,91.68
2023-01-10T06:22:23.879Z,91.98
2023-01-10T06:23:25.546Z,92.19
2023-01-10T06:24:28.176Z,93.37
2023-01-10T06:25:31.044Z,93.66
2023-01-10T06:26:33.700Z,93.51
2023-01-10T06:27:35.276Z,93.76
2023-01-10T06:28:37.760Z,93.80
2023-01-10T06:29:39.220Z,93.83
2023-01-10T06:30:43.255Z,94.19
2023-01-10T06:31:44.832Z,94.13
2023-01-10T06:32:47.308Z,94.02
2023-01-10T06:33:50.202Z,93.94
2023-01-10T06:34:52.633Z,94.11
2023-01-10T06:35:54.138Z,93.94
2023-01-10T06:36:56.567Z,93.76
2023-01-10T06:37:59.407Z,92.88
2023-01-10T06:39:01.946Z,93.26
2023-01-10T06:40:04.020Z,92.99
2023-01-10T06:41:13.746Z,92.59
2023-01-10T06:42:15.246Z,92.30
2023-01-10T06:43:17.702Z,92.38
2023-01-10T06:44:19.202Z,91.68
2023-01-10T06:45:22.086Z,91.55
2023-01-10T06:46:24.607Z,91.29
2023-01-10T06:47:26.105Z,91.55
2023-01-10T06:48:28.566Z,92.59
2023-01-10T06:49:30.409Z,92.65
2023-01-10T06:50:32.867Z,92.83
2023-01-10T06:51:34.494Z,92.85
2023-01-10T06:52:37.952Z,92.64
2023-01-10T06:53:39.621Z,92.29
2023-01-10T06:54:42.113Z,93.28
2023-01-10T06:55:43.584Z,92.96
2023-01-10T06:56:48.403Z,92.76
2023-01-10T06:57:55.414Z,93.21
2023-01-10T06:58:57.832Z,93.18
2023-01-10T06:59:59.313Z,92.42
2023-01-10T07:01:01.889Z,92.68
2023-01-10T07:02:04.531Z,92.32
2023-01-10T07:03:06.126Z,92.61
2023-01-10T07:04:08.657Z,92.16
2023-01-10T07:05:11.587Z,92.00
2023-01-10T07:06:14.680Z,92.26
2023-01-10T07:07:16.219Z,92.34
2023-01-10T07:08:18.661Z,92.79
2023-01-10T07:09:21.057Z,92.23
2023-01-10T07:10:22.598Z,92.47
2023-01-10T07:11:25.107Z,92.45
2023-01-10T07:12:28.837Z,92.19
2023-01-10T07:13:31.242Z,91.36
2023-01-10T07:14:32.924Z,91.69
2023-01-10T07:15:35.346Z,91.92
2023-01-10T07:16:37.945Z,91.51
2023-01-10T07:17:39.669Z,91.21
2023-01-10T07:18:43.744Z,90.24
2023-01-10T07:19:45.265Z,89.97
2023-01-10T07:20:47.713Z,89.81
2023-01-10T07:21:50.175Z,90.26
2023-01-10T07:22:56.001Z,90.20
2023-01-10T07:23:58.433Z,90.13
2023-01-10T07:25:00.047Z,90.55
2023-01-10T07:26:04.486Z,90.40
2023-01-10T07:27:06.907Z,91.05
2023-01-10T07:28:09.766Z,90.75
2023-01-10T07:29:12.243Z,90.68
2023-01-10T07:30:15.202Z,91.81
2023-01-10T07:31:18.825Z,92.11
2023-01-10T07:32:21.316Z,92.26
2023-01-10T07:33:25.538Z,91.59
2023-01-10T07:34:28.022Z,91.91
2023-01-10T07:35:30.147Z,91.50
2023-01-10T07:36:39.184Z,91.25
2023-01-10T07:37:41.248Z,91.32
2023-01-10T07:38:43.707Z,90.79
2023-01-10T07:39:46.155Z,90.41
2023-01-10T07:40:48.857Z,91.10
2023-01-10T07:41:52.761Z,91.17
2023-01-10T07:42:57.566Z,90.88
2023-01-10T07:44:00.367Z,90.35
2023-01-10T07:45:02.791Z,90.14
2023-01-10T07:46:08.209Z,90.15
2023-01-10T07:47:10.656Z,90.30
2023-01-10T07:48:12.233Z,89.71
2023-01-10T07:49:15.040Z,90.00
2023-01-10T07:50:18.085Z,89.89
2023-01-10T07:51:23.999Z,89.55
2023-01-10T07:52:26.479Z,89.57
2023-01-10T07:53:30.356Z,89.92
2023-01-10T07:54:32.050Z,89.83
2023-01-10T07:55:36.210Z,89.60
2023-01-10T07:56:39.340Z,89.58
2023-01-10T07:57:41.792Z,89.88
2023-01-10T07:58:46.234Z,90.10
2023-01-10T07:59:49.080Z,89.97
2023-01-10T08:00:51.556Z,89.20
2023-01-10T08:01:54.109Z,89.48
2023-01-10T08:02:57.318Z,90.40
2023-01-10T08:03:59.912Z,90.63
2023-01-10T08:05:01.549Z,91.01
2023-01-10T08:06:06.021Z,90.54
2023-01-10T08:07:08.499Z,90.76
2023-01-10T08:08:12.553Z,90.38
2023-01-10T08:09:15.242Z,90.14
2023-01-10T08:10:19.089Z,90.28
2023-01-10T08:11:21.685Z,90.38
2023-01-10T08:12:24.638Z,89.52
2023-01-10T08:13:29.398Z,90.00
2023-01-10T08:14:31.851Z,89.33
2023-01-10T08:15:34.809Z,90.29
2023-01-10T08:16:37.237Z,90.66
2023-01-10T08:17:38.846Z,90.72
2023-01-10T08:18:43.047Z,90.99
2023-01-10T08:19:44.807Z,91.47
2023-01-10T08:20:48.421Z,91.15
2023-01-10T08:21:49.917Z,90.99
2023-01-10T08:22:52.415Z,90.83
2023-01-10T08:23:55.165Z,89.50
2023-01-10T08:24:56.682Z,89.19
2023-01-10T08:25:59.313Z,89.45
2023-01-10T08:27:02.223Z,90.36
2023-01-10T08:28:03.867Z,90.85
2023-01-10T08:29:06.441Z,90.45
2023-01-10T08:30:10.145Z,90.35
2023-01-10T08:31:14.012Z,90.39
2023-01-10T08:32:16.544Z,90.83
2023-01-10T08:33:22.974Z,90.59
2023-01-10T08:34:24.573Z,90.13
2023-01-10T08:35:27.138Z,90.28
2023-01-10T08:36:35.710Z,90.71
2023-01-10T08:37:38.195Z,90.38
2023-01-10T08:38:40.626Z,89.75
2023-01-10T08:39:43.025Z,89.72
2023-01-10T08:40:45.499Z,89.48
2023-01-10T08:41:49.263Z,89.22
2023-01-10T08:42:58.564Z,89.40
2023-01-10T08:44:01.295Z,89.51
2023-01-10T08:45:05.481Z,89.34
2023-01-10T08:46:07.566Z,88.85
2023-01-10T08:47:14.461Z,88.60
2023-01-10T08:48:16.897Z,88.93
2023-01-10T08:49:19.453Z,88.54
2023-01-10T08:50:22.024Z,88.89
2023-01-10T08:51:24.472Z,88.92
2023-01-10T08:52:25.953Z,89.13
2023-01-10T08:53:31.841Z,88.56
2023-01-10T08:54:34.490Z,88.75
2023-01-10T08:55:39.215Z,88.54
2023-01-10T08:56:41.990Z,88.01
2023-01-10T08:57:44.759Z,87.63
2023-01-10T08:58:47.237Z,87.33
2023-01-10T08:59:49.729Z,86.81
2023-01-10T09:00:52.282Z,86.39
2023-01-10T09:01:54.821Z,86.15
2023-01-10T09:02:58.794Z,85.59
2023-01-10T09:04:01.250Z,85.55
2023-01-10T09:05:02.741Z,84.62
2023-01-10T09:06:05.481Z,83.35
2023-01-10T09:07:07.980Z,84.19
2023-01-10T09:08:09.939Z,84.41
2023-01-10T09:09:12.371Z,83.92
2023-01-10T09:10:14.945Z,83.32
2023-01-10T09:11:16.503Z,83.45
2023-01-10T09:12:36.566Z,83.86
2023-01-10T09:13:40.133Z,83.81
2023-01-10T09:14:41.622Z,83.53
2023-01-10T09:15:44.432Z,83.88
2023-01-10T09:16:46.276Z,84.48
2023-01-10T09:17:49.741Z,84.41
2023-01-10T09:18:54.410Z,84.39
2023-01-10T09:19:56.289Z,84.62
2023-01-10T09:20:58.738Z,84.85
2023-01-10T09:22:01.190Z,85.32
2023-01-10T09:23:12.403Z,85.75
2023-01-10T09:24:14.022Z,84.64
2023-01-10T09:25:16.628Z,84.97
2023-01-10T09:26:19.049Z,85.85
2023-01-10T09:27:21.744Z,86.24
2023-01-10T09:28:24.887Z,85.92
2023-01-10T09:29:27.639Z,85.78
2023-01-10T09:30:31.474Z,85.22
2023-01-10T09:31:34.894Z,85.08
2023-01-10T09:32:37.404Z,85.07
2023-01-10T09:33:46.754Z,84.44
2023-01-10T09:34:51.107Z,84.63
2023-01-10T09:35:53.551Z,84.57
2023-01-10T09:36:55.187Z,84.74
2023-01-10T09:37:59.063Z,84.61
2023-01-10T09:39:01.557Z,83.92
2023-01-10T09:40:03.757Z,83.97
2023-01-10T09:41:21.644Z,83.60
2023-01-10T09:42:35.833Z,83.62
2023-01-10T09:43:48.766Z,83.53
2023-01-10T09:45:01.145Z,83.00
2023-01-10T09:46:09.542Z,82.49
2023-01-10T09:47:22.847Z,82.84
2023-01-10T09:48:32.420Z,83.66
2023-01-10T09:49:49.058Z,83.67
2023-01-10T09:51:10.060Z,84.33
2023-01-10T09:52:17.714Z,84.67
2023-01-10T09:53:24.016Z,84.81
2023-01-10T09:54:29.983Z,84.42
2023-01-10T09:55:33.761Z,84.64
2023-01-10T09:56:37.220Z,84.85
2023-01-10T09:57:39.672Z,84.14
2023-01-10T09:58:44.735Z,84.49
2023-01-10T09:59:51.157Z,85.35
2023-01-10T10:00:57.619Z,85.63
2023-01-10T10:02:08.196Z,85.09
2023-01-10T10:03:20.452Z,84.62
2023-01-10T10:04:28.298Z,84.60
2023-01-10T10:05:30.230Z,84.65
2023-01-10T10:06:34.530Z,84.25
2023-01-10T10:07:36.454Z,85.04
2023-01-10T10:08:39.893Z,84.82
2023-01-10T10:09:44.244Z,84.83
2023-01-10T10:10:55.438Z,83.77
2023-01-10T10:12:18.493Z,84.45
2023-01-10T10:13:28.150Z,83.86
2023-01-10T10:14:45.043Z,83.21
2023-01-10T10:15:54.447Z,83.00
2023-01-10T10:17:13.568Z,82.49
2023-01-10T10:18:28.560Z,81.60
2023-01-10T10:19:39.800Z,82.56
2023-01-10T10:20:52.441Z,81.81
2023-01-10T10:22:06.288Z,80.71
2023-01-10T10:23:29.248Z,81.69
2023-01-10T10:24:50.448Z,82.03
2023-01-10T10:26:02.559Z,81.45
2023-01-10T10:27:17.227Z,81.75
2023-01-10T10:28:59.955Z,81.39
2023-01-10T10:30:18.968Z,80.63
2023-01-10T10:31:33.016Z,80.20
2023-01-10T10:32:51.604Z,79.34
2023-01-10T10:34:03.438Z,73.39
2023-01-10T10:35:14.005Z,72.05
2023-01-10T10:36:23.846Z,72.27
2023-01-10T10:37:33.385Z,72.93
2023-01-10T10:38:38.954Z,74.43
2023-01-10T10:39:48.310Z,75.43
2023-01-10T10:40:52.874Z,77.23
2023-01-10T10:41:56.229Z,76.67
2023-01-10T10:43:02.656Z,77.32
2023-01-10T10:44:18.450Z,77.58
2023-01-10T10:45:28.912Z,77.04
2023-01-10T10:46:32.096Z,79.32
2023-01-10T10:47:37.014Z,77.64
2023-01-10T10:48:43.479Z,76.89
2023-01-10T10:49:51.324Z,77.18
2023-01-10T10:51:04.312Z,77.49
2023-01-10T10:52:16.379Z,76.45
2023-01-10T10:53:20.208Z,76.16
2023-01-10T10:54:23.192Z,76.44
2023-01-10T10:55:29.787Z,76.61
2023-01-10T10:56:32.258Z,76.81
2023-01-10T10:57:38.775Z,77.46
2023-01-10T10:58:49.229Z,77.49
2023-01-10T10:59:51.970Z,77.81
2023-01-10T11:00:54.609Z,78.16
2023-01-10T11:01:56.310Z,77.65
2023-01-10T11:03:04.263Z,76.82
2023-01-10T11:04:11.155Z,77.84
2023-01-10T11:05:18.126Z,77.62
2023-01-10T11:06:21.345Z,76.97
2023-01-10T11:07:24.652Z,75.55
2023-01-10T11:08:30.896Z,75.76
2023-01-10T11:09:34.914Z,75.32
2023-01-10T11:10:38.306Z,75.42
2023-01-10T11:11:45.007Z,74.84
2023-01-10T11:12:51.041Z,75.89
2023-01-10T11:13:55.914Z,75.38
2023-01-10T11:14:58.951Z,75.78
2023-01-10T11:16:01.839Z,76.43
2023-01-10T11:17:20.455Z,75.85
2023-01-10T11:18:25.589Z,75.13
2023-01-10T11:19:30.039Z,74.71
2023-01-10T11:20:31.882Z,74.55
2023-01-10T11:21:34.834Z,74.42
2023-01-10T11:22:46.619Z,75.38
2023-01-10T11:23:54.463Z,75.74
2023-01-10T11:25:00.653Z,76.45
2023-01-10T11:26:02.723Z,75.55
2023-01-10T11:27:16.421Z,75.97
2023-01-10T11:28:23.453Z,75.25
2023-01-10T11:29:28.334Z,75.26
2023-01-10T11:30:33.440Z,76.05
2023-01-10T11:31:36.488Z,75.91
2023-01-10T11:32:41.598Z,75.77
2023-01-10T11:33:43.256Z,75.86
2023-01-10T11:34:53.903Z,76.24
2023-01-10T11:35:59.206Z,76.48
2023-01-10T11:37:03.741Z,76.67
2023-01-10T11:38:21.925Z,77.36
2023-01-10T11:39:27.813Z,78.35
2023-01-10T11:40:31.594Z,77.94
2023-01-10T11:41:36.063Z,77.92
2023-01-10T11:42:38.626Z,78.32
2023-01-10T11:43:42.063Z,77.96
2023-01-10T11:44:43.661Z,78.61
2023-01-10T11:45:46.209Z,77.14
2023-01-10T11:46:50.302Z,77.38
2023-01-10T11:47:55.072Z,77.17
2023-01-10T11:49:06.672Z,76.74
2023-01-10T11:50:10.429Z,77.64
2023-01-10T11:51:23.575Z,76.42
2023-01-10T11:52:29.596Z,76.22
2023-01-10T11:53:38.933Z,76.58
2023-01-10T11:54:43.319Z,76.69
2023-01-10T11:55:48.307Z,77.09
2023-01-10T11:56:57.424Z,77.28
2023-01-10T11:58:04.617Z,77.93
2023-01-10T11:59:13.490Z,77.67
2023-01-10T12:00:16.723Z,78.31
2023-01-10T12:01:28.105Z,78.86
2023-01-10T12:02:34.616Z,78.71
2023-01-10T12:03:38.335Z,79.28
2023-01-10T12:04:44.616Z,78.56
2023-01-10T12:05:51.840Z,78.69
2023-01-10T12:06:58.438Z,78.40
2023-01-10T12:08:06.437Z,78.33
2023-01-10T12:09:40.564Z,78.13
2023-01-10T12:10:42.236Z,77.96
2023-01-10T12:11:46.271Z,77.68
2023-01-10T12:12:57.066Z,77.81
2023-01-10T12:14:00.732Z,77.70
2023-01-10T12:15:23.905Z,77.31
2023-01-10T12:16:28.266Z,77.55
2023-01-10T12:17:31.542Z,78.33
2023-01-10T12:18:34.048Z,78.13
2023-01-10T12:19:36.668Z,77.91
2023-01-10T12:20:48.947Z,77.52
2023-01-10T12:21:52.073Z,77.59
2023-01-10T12:22:58.637Z,77.29
2023-01-10T12:24:05.944Z,77.94
2023-01-10T12:25:19.273Z,78.02
2023-01-10T12:26:22.574Z,77.83
2023-01-10T12:27:27.413Z,77.94
2023-01-10T12:28:30.470Z,78.12
2023-01-10T12:29:37.660Z,77.60
2023-01-10T12:30:43.515Z,77.84
2023-01-10T12:31:45.577Z,78.16
2023-01-10T12:32:52.770Z,78.42
2023-01-10T12:34:01.449Z,78.28
2023-01-10T12:35:08.376Z,78.48
2023-01-10T12:36:17.077Z,77.81
2023-01-10T12:37:28.232Z,77.51
2023-01-10T12:38:52.485Z,77.47
2023-01-10T12:40:01.800Z,77.25
2023-01-10T12:41:05.840Z,78.31
2023-01-10T12:42:37.641Z,78.60
2023-01-10T12:44:01.284Z,78.52
2023-01-10T12:45:09.877Z,78.57
2023-01-10T12:46:36.019Z,78.05
2023-01-10T12:47:55.401Z,77.05
2023-01-10T12:49:02.251Z,76.81
2023-01-10T12:50:13.418Z,77.20
2023-01-10T12:51:22.105Z,76.95
2023-01-10T12:52:34.835Z,77.28
2023-01-10T12:53:40.832Z,77.02
2023-01-10T12:54:47.250Z,76.72
2023-01-10T12:55:52.721Z,76.01
2023-01-10T12:56:59.367Z,76.95
2023-01-10T12:58:06.133Z,76.98
2023-01-10T12:59:23.721Z,76.01
2023-01-10T13:00:47.897Z,75.76
2023-01-10T13:01:54.140Z,75.50
2023-01-10T13:02:59.914Z,75.06
2023-01-10T13:04:07.142Z,75.01
2023-01-10T13:05:17.904Z,75.24
2023-01-10T13:06:24.094Z,74.98
2023-01-10T13:07:32.016Z,75.65
2023-01-10T13:08:38.625Z,74.89
2023-01-10T13:09:42.638Z,74.21
2023-01-10T13:10:47.139Z,74.73
2023-01-10T13:11:55.415Z,75.25
2023-01-10T13:13:07.143Z,75.16
2023-01-10T13:14:15.568Z,75.09
2023-01-10T13:15:22.046Z,74.49
2023-01-10T13:16:33.023Z,74.94
2023-01-10T13:17:43.057Z,75.86
2023-01-10T13:19:01.732Z,75.31
2023-01-10T13:20:28.148Z,75.43
2023-01-10T13:21:32.114Z,75.63
2023-01-10T13:22:35.794Z,76.63
2023-01-10T13:23:46.627Z,77.03
2023-01-10T13:24:59.637Z,77.68
2023-01-10T13:26:05.749Z,77.62
2023-01-10T13:27:21.310Z,77.64
2023-01-10T13:28:27.183Z,78.10
2023-01-10T13:29:32.189Z,78.11
2023-01-10T13:30:37.871Z,77.72
2023-01-10T13:31:40.604Z,78.07
2023-01-10T13:32:42.170Z,78.19
2023-01-10T13:33:54.158Z,78.31
2023-01-10T13:35:13.306Z,78.40
2023-01-10T13:36:21.437Z,78.02
2023-01-10T13:37:26.759Z,78.61
2023-01-10T13:38:38.375Z,78.28
2023-01-10T13:39:45.953Z,78.66
2023-01-10T13:41:03.650Z,78.69
2023-01-10T13:42:46.618Z,78.82
2023-01-10T13:44:09.611Z,78.53
2023-01-10T13:45:30.481Z,78.23
2023-01-10T13:46:43.197Z,78.62
2023-01-10T13:48:17.508Z,78.42
2023-01-10T13:49:47.192Z,78.26
2023-01-10T13:50:50.412Z,77.91
2023-01-10T13:52:21.739Z,78.50
2023-01-10T13:53:44.358Z,78.58
2023-01-10T13:54:56.958Z,78.71
2023-01-10T13:55:59.499Z,78.77
2023-01-10T13:57:02.008Z,79.21
2023-01-10T13:58:05.426Z,79.90
2023-01-10T13:59:49.945Z,79.63
2023-01-10T14:01:11.640Z,79.95
2023-01-10T14:02:29.930Z,80.36
2023-01-10T14:03:46.829Z,80.17
2023-01-10T14:04:53.430Z,79.40
2023-01-10T14:05:55.061Z,79.55
2023-01-10T14:07:00.225Z,79.72
2023-01-10T14:08:02.949Z,79.59
2023-01-10T14:09:26.091Z,79.57